Time;durP1;ratioP1;P1;durP2;ratioP2;P2;SDS_P1;SDS_P2;PMS_P1;PMS_P2;Temp;Humidity;BMP_temperature;BMP_pressure;BME280_temperature;BME280_humidity;BME280_pressure;Samples;Min_cycle;Max_cycle;Signal;HPM_P1;HPM_P2
2022/10/12 00:00:54;;;;;;;39.20;17.90;;;;;;;2.69;87.30;101523.30;88756;1299;22017;-76
2022/10/12 00:03:11;;;;;;;33.90;18.90;;;;;;;2.67;87.31;101522.06;88759;1294;22017;-76
2022/10/12 00:05:17;;;;;;;31.20;19.40;;;;;;;2.66;87.22;101529.80;88749;1299;22033;-76
2022/10/12 00:07:22;;;;;;;38.10;19.20;;;;;;;2.64;87.24;101523.40;88638;1299;22065;-76
2022/10/12 00:09:28;;;;;;;32.80;19.40;;;;;;;2.64;87.33;101525.98;88530;1306;22749;-76
2022/10/12 00:11:33;;;;;;;36.40;20.30;;;;;;;2.64;87.58;101530.64;88526;1305;22089;-76
2022/10/12 00:13:39;;;;;;;28.20;16.80;;;;;;;2.62;87.41;101523.20;88757;1288;22111;-76
2022/10/12 00:15:43;;;;;;;27.80;16.90;;;;;;;2.59;87.43;101523.02;88778;1299;22051;-76
2022/10/12 00:17:49;;;;;;;31.60;17.30;;;;;;;2.57;87.54;101521.41;88774;1299;22785;-76
2022/10/12 00:19:55;;;;;;;29.30;17.30;;;;;;;2.55;87.47;101527.25;88758;1299;22104;-76
2022/10/12 00:22:00;;;;;;;34.90;18.50;;;;;;;2.54;87.45;101527.75;88506;1306;22056;-76
2022/10/12 00:24:08;;;;;;;35.80;18.00;;;;;;;2.52;87.56;101529.63;88808;1292;22020;-76
2022/10/12 00:26:15;;;;;;;31.00;17.00;;;;;;;2.51;87.56;101528.40;88504;1306;22181;-76
2022/10/12 00:28:21;;;;;;;34.10;18.80;;;;;;;2.48;87.57;101532.84;88770;1287;22052;-76
2022/10/12 00:30:27;;;;;;;28.20;17.30;;;;;;;2.46;87.63;101530.58;88532;1306;22058;-76
2022/10/12 00:32:32;;;;;;;30.80;17.80;;;;;;;2.43;87.54;101534.32;88456;1309;22134;-76
2022/10/12 00:34:37;;;;;;;32.30;16.60;;;;;;;2.41;87.64;101533.60;88784;1288;22039;-76
2022/10/12 00:36:43;;;;;;;33.10;16.70;;;;;;;2.37;87.58;101532.17;88510;1306;22380;-76
2022/10/12 00:38:49;;;;;;;27.30;17.00;;;;;;;2.35;87.47;101531.96;88787;1291;21999;-76
2022/10/12 00:40:55;;;;;;;31.10;16.50;;;;;;;2.32;87.51;101532.63;88542;1306;22074;-76
2022/10/12 00:43:00;;;;;;;30.70;17.30;;;;;;;2.29;87.51;101532.58;88027;1299;1002464;-76
2022/10/12 00:45:09;;;;;;;30.00;17.70;;;;;;;2.27;87.67;101530.82;88436;1301;22185;-76
2022/10/12 00:47:23;;;;;;;27.80;16.50;;;;;;;2.25;87.76;101533.73;88758;1297;22644;-76
2022/10/12 00:49:29;;;;;;;30.60;16.70;;;;;;;2.24;87.75;101535.42;88483;1303;22058;-76
2022/10/12 00:51:34;;;;;;;28.10;17.20;;;;;;;2.23;87.87;101535.92;88632;1299;22103;-76
2022/10/12 00:53:42;;;;;;;30.40;16.00;;;;;;;2.21;87.76;101538.31;88783;1299;22022;-76
2022/10/12 00:55:49;;;;;;;30.70;16.70;;;;;;;2.20;87.95;101539.31;88752;1299;22136;-76
2022/10/12 00:57:55;;;;;;;24.50;15.90;;;;;;;2.17;87.87;101538.08;88505;1304;22072;-76
2022/10/12 01:00:04;;;;;;;30.10;16.00;;;;;;;2.16;87.89;101541.49;88637;1298;22048;-76
2022/10/12 01:02:09;;;;;;;34.00;16.80;;;;;;;2.16;88.12;101542.00;88517;1299;22088;-76
2022/10/12 01:04:15;;;;;;;28.10;17.00;;;;;;;2.16;88.08;101543.90;88770;1302;22043;-76
2022/10/12 01:06:20;;;;;;;27.40;16.70;;;;;;;2.14;88.04;101545.43;88772;1300;22034;-76
2022/10/12 01:08:26;;;;;;;28.40;15.00;;;;;;;2.14;88.21;101547.50;88658;1298;22077;-76
2022/10/12 01:10:31;;;;;;;25.70;16.40;;;;;;;2.13;88.17;101551.61;88782;1292;22039;-76
2022/10/12 01:12:37;;;;;;;29.30;16.80;;;;;;;2.12;88.08;101550.90;88523;1305;22060;-76
2022/10/12 01:14:43;;;;;;;30.00;17.50;;;;;;;2.10;88.10;101551.55;88800;1291;21998;-76
2022/10/12 01:16:51;;;;;;;27.10;16.20;;;;;;;2.08;88.29;101551.88;88545;1305;22624;-76
2022/10/12 01:19:01;;;;;;;30.00;16.20;;;;;;;2.07;88.30;101550.84;88545;1303;22102;-76
2022/10/12 01:21:14;;;;;;;28.80;15.90;;;;;;;2.07;88.24;101555.48;88521;1307;22108;-76
2022/10/12 01:23:43;;;;;;;23.30;14.60;;;;;;;2.04;88.39;101556.30;88652;1301;22835;-76
2022/10/12 01:26:03;;;;;;;22.80;14.60;;;;;;;2.04;88.39;101554.56;88786;1302;22601;-76
2022/10/12 01:28:13;;;;;;;24.40;15.40;;;;;;;2.02;88.46;101557.98;88769;1300;22600;-76
2022/10/12 01:30:21;;;;;;;27.20;16.80;;;;;;;2.02;88.49;101556.78;88531;1302;22088;-76
2022/10/12 01:32:29;;;;;;;23.00;15.70;;;;;;;2.02;88.63;101556.42;88532;1306;22123;-76
2022/10/12 01:34:37;;;;;;;31.30;15.70;;;;;;;2.01;88.53;101556.42;88770;1299;22033;-76
2022/10/12 01:36:45;;;;;;;29.60;15.30;;;;;;;2.00;88.63;101556.56;88777;1290;22022;-76
2022/10/12 01:38:55;;;;;;;24.80;15.10;;;;;;;1.99;88.64;101558.63;88533;1309;22155;-76
2022/10/12 01:41:02;;;;;;;;;;;;;;;1.98;88.74;101559.48;88519;1306;22156;-76
2022/10/12 01:43:09;;;;;;;29.80;16.40;;;;;;;1.96;88.99;101560.11;88700;1303;22037;-76
2022/10/12 01:45:16;;;;;;;27.20;14.70;;;;;;;1.99;89.10;101561.55;88763;1295;22113;-76
2022/10/12 01:47:22;;;;;;;23.50;15.30;;;;;;;2.00;89.09;101562.94;88782;1284;22018;-76
2022/10/12 01:49:29;;;;;;;29.40;15.90;;;;;;;2.00;89.03;101562.25;88785;1302;22997;-76
2022/10/12 01:51:40;;;;;;;27.50;15.90;;;;;;;2.01;89.14;101563.98;88771;1293;22045;-76
2022/10/12 01:53:47;;;;;;;26.30;16.30;;;;;;;2.02;89.04;101566.76;88526;1297;22048;-76
2022/10/12 01:55:56;;;;;;;28.70;16.80;;;;;;;2.02;89.19;101567.80;88801;1292;22037;-76
2022/10/12 01:58:29;;;;;;;28.20;17.20;;;;;;;2.03;89.26;101570.40;88794;1296;22020;-76
2022/10/12 02:00:39;;;;;;;27.80;15.30;;;;;;;2.02;89.34;101570.55;88788;1302;22047;-76
2022/10/12 02:02:52;;;;;;;33.70;17.00;;;;;;;2.02;89.19;101569.68;88809;1296;22579;-75
2022/10/12 02:05:04;;;;;;;30.30;17.00;;;;;;;2.01;89.23;101568.81;88550;1308;22088;-75
2022/10/12 02:07:12;;;;;;;31.50;15.90;;;;;;;2.00;89.16;101571.54;88527;1304;22599;-75
2022/10/12 02:09:23;;;;;;;29.60;15.10;;;;;;;1.99;89.27;101576.00;88781;1295;22084;-75
2022/10/12 02:11:28;;;;;;;26.50;15.70;;;;;;;1.98;89.18;101576.85;88765;1290;22619;-75
2022/10/12 02:13:35;;;;;;;26.40;16.30;;;;;;;1.98;89.41;101575.31;88557;1304;22056;-75
2022/10/12 02:15:41;;;;;;;29.10;15.60;;;;;;;1.99;89.32;101577.38;88777;1289;22117;-75
2022/10/12 02:17:48;;;;;;;29.20;15.60;;;;;;;1.99;89.42;101579.28;88522;1307;22086;-75
2022/10/12 02:19:56;;;;;;;35.40;17.30;;;;;;;2.00;89.47;101581.00;88778;1297;22773;-75
2022/10/12 02:22:04;;;;;;;29.50;16.90;;;;;;;2.01;89.57;101578.44;88766;1293;22014;-75
2022/10/12 02:24:10;;;;;;;26.80;15.90;;;;;;;2.01;89.63;101582.05;88752;1297;22642;-75
2022/10/12 02:26:16;;;;;;;27.80;16.20;;;;;;;2.01;89.62;101583.43;88421;1304;22107;-77
2022/10/12 02:28:23;;;;;;;32.20;18.20;;;;;;;2.01;89.62;101580.34;88782;1297;22038;-76
2022/10/12 02:30:28;;;;;;;35.20;17.10;;;;;;;2.01;89.54;101581.20;88656;1289;22693;-76
2022/10/12 02:32:39;;;;;;;28.50;17.60;;;;;;;2.00;89.52;101578.95;88519;1306;22822;-76
2022/10/12 02:34:47;;;;;;;27.70;16.50;;;;;;;2.00;89.65;101575.49;88558;1307;22151;-76
2022/10/12 02:37:01;;;;;;;23.80;15.80;;;;;;;2.00;89.68;101576.52;87781;1307;1002326;-76
2022/10/12 02:39:09;;;;;;;26.30;17.70;;;;;;;2.00;89.80;101577.40;88643;1295;22046;-76
2022/10/12 02:41:17;;;;;;;29.00;15.60;;;;;;;2.02;89.97;101582.93;88719;1299;22072;-75
2022/10/12 02:43:24;;;;;;;33.40;17.10;;;;;;;2.03;89.93;101583.65;88543;1304;22836;-75
2022/10/12 02:45:30;;;;;;;35.00;17.40;;;;;;;2.04;90.13;101582.11;88800;1294;22252;-75
2022/10/12 02:47:35;;;;;;;28.40;17.50;;;;;;;2.06;90.28;101582.65;88805;1297;22568;-75
2022/10/12 02:49:41;;;;;;;28.20;16.30;;;;;;;2.09;90.41;101585.46;88643;1299;22100;-75
2022/10/12 02:51:46;;;;;;;26.80;17.80;;;;;;;2.11;90.25;101586.52;88818;1297;22034;-75
2022/10/12 02:53:52;;;;;;;31.00;17.80;;;;;;;2.12;90.23;101589.63;88544;1306;22271;-75
2022/10/12 02:56:06;;;;;;;36.20;18.80;;;;;;;2.13;90.35;101588.96;88520;1307;22240;-75
2022/10/12 02:58:12;;;;;;;32.60;17.50;;;;;;;2.13;90.39;101586.39;88792;1297;22659;-75
2022/10/12 03:00:19;;;;;;;24.30;17.50;;;;;;;2.13;90.39;101588.80;88535;1306;22063;-75
2022/10/12 03:02:24;;;;;;;30.30;17.70;;;;;;;2.14;90.44;101591.39;88510;1306;22137;-75
2022/10/12 03:04:30;;;;;;;31.10;17.70;;;;;;;2.14;90.50;101586.75;88522;1303;22046;-75
2022/10/12 03:06:35;;;;;;;27.60;16.50;;;;;;;2.16;90.51;101584.35;88530;1298;22711;-75
2022/10/12 03:08:41;;;;;;;31.30;16.60;;;;;;;2.17;90.53;101583.16;88694;1299;22095;-75
2022/10/12 03:10:47;;;;;;;32.50;16.70;;;;;;;2.16;90.58;101573.69;88761;1288;22056;-75
2022/10/12 03:12:52;;;;;;;33.50;16.70;;;;;;;2.17;90.44;101574.05;88515;1306;22068;-75
2022/10/12 03:14:58;;;;;;;31.90;19.80;;;;;;;2.17;90.52;101571.13;88612;1299;22084;-75
2022/10/12 03:17:04;;;;;;;28.40;17.90;;;;;;;2.18;90.67;101570.98;88769;1293;22009;-75
2022/10/12 03:19:09;;;;;;;35.00;17.00;;;;;;;2.19;90.63;101573.58;88771;1282;22040;-75
2022/10/12 03:21:16;;;;;;;29.70;17.00;;;;;;;2.20;90.58;101572.71;88628;1299;22548;-76
2022/10/12 03:23:21;;;;;;;32.20;18.20;;;;;;;2.21;90.74;101575.31;88772;1297;22681;-76
2022/10/12 03:25:27;;;;;;;31.60;20.10;;;;;;;2.20;90.72;101577.54;88495;1306;22077;-76
2022/10/12 03:27:33;;;;;;;31.30;17.40;;;;;;;2.21;90.73;101576.02;88515;1289;22077;-76
2022/10/12 03:29:38;;;;;;;34.10;19.00;;;;;;;2.22;90.76;101575.86;88633;1294;22066;-76
2022/10/12 03:31:44;;;;;;;36.30;19.50;;;;;;;2.22;90.92;101580.52;88751;1288;22023;-75
2022/10/12 03:33:49;;;;;;;32.30;19.00;;;;;;;2.22;90.80;101581.55;88550;1306;22118;-75
2022/10/12 03:35:55;;;;;;;33.00;19.40;;;;;;;2.22;90.98;101583.42;88791;1297;22064;-75
2022/10/12 03:38:00;;;;;;;32.10;17.90;;;;;;;2.22;90.95;101581.70;88792;1297;22039;-75
2022/10/12 03:40:09;;;;;;;29.80;17.90;;;;;;;2.21;90.77;101585.66;88704;1291;22074;-75
2022/10/12 03:42:15;;;;;;;31.20;18.60;;;;;;;2.19;90.66;101583.73;88777;1293;22032;-75
2022/10/12 03:44:21;;;;;;;26.10;17.80;;;;;;;2.18;90.64;101583.36;88785;1286;22688;-75
2022/10/12 03:46:27;;;;;;;27.40;16.90;;;;;;;2.17;90.67;101583.34;88795;1280;22024;-76
2022/10/12 03:48:32;;;;;;;31.20;18.70;;;;;;;2.15;90.69;101582.11;88780;1297;22710;-76
2022/10/12 03:50:39;;;;;;;27.40;17.20;;;;;;;2.13;90.49;101582.60;88521;1297;22114;-76
2022/10/12 03:52:45;;;;;;;26.50;16.50;;;;;;;2.12;90.65;101581.20;88771;1297;22061;-76
2022/10/12 03:54:50;;;;;;;29.20;17.90;;;;;;;2.11;90.62;101581.69;88786;1286;22485;-76
2022/10/12 03:56:56;;;;;;;36.00;18.50;;;;;;;2.10;90.75;101583.58;88509;1304;22527;-76
2022/10/12 03:59:02;;;;;;;27.70;18.40;;;;;;;2.10;90.64;101587.53;88430;1304;22122;-76
2022/10/12 04:01:07;;;;;;;42.50;19.20;;;;;;;2.09;90.64;101584.95;88768;1298;22099;-76
2022/10/12 04:03:13;;;;;;;32.20;17.40;;;;;;;2.08;90.85;101580.97;88702;1294;22093;-76
2022/10/12 04:05:19;;;;;;;38.10;19.60;;;;;;;2.07;90.77;101583.20;88765;1297;22599;-76
2022/10/12 04:07:24;;;;;;;39.80;19.10;;;;;;;2.08;90.80;101582.86;88751;1287;22032;-76
2022/10/12 04:09:30;;;;;;;35.70;20.00;;;;;;;2.08;91.25;101580.11;88458;1307;22146;-76
2022/10/12 04:11:35;;;;;;;30.90;18.00;;;;;;;2.12;91.35;101582.73;88781;1297;22068;-76
2022/10/12 04:13:41;;;;;;;32.60;18.20;;;;;;;2.13;91.29;101581.56;88763;1293;22030;-76
2022/10/12 04:15:47;;;;;;;35.70;18.10;;;;;;;2.13;91.19;101581.91;88539;1297;22077;-76
2022/10/12 04:17:53;;;;;;;34.00;19.20;;;;;;;2.13;91.26;101584.33;88521;1306;22166;-76
2022/10/12 04:19:58;;;;;;;32.40;19.20;;;;;;;2.13;91.23;101583.46;88790;1270;22029;-76
2022/10/12 04:22:04;;;;;;;30.60;19.40;;;;;;;2.14;91.18;101587.77;88700;1298;22766;-76
2022/10/12 04:24:10;;;;;;;31.60;17.80;;;;;;;2.13;91.26;101586.22;88756;1276;22009;-76
2022/10/12 04:26:15;;;;;;;28.30;18.40;;;;;;;2.13;91.28;101584.66;88046;1296;1002902;-76
2022/10/12 04:28:21;;;;;;;36.30;18.90;;;;;;;2.12;91.10;101584.31;88788;1297;22129;-76
2022/10/12 04:30:26;;;;;;;29.60;17.70;;;;;;;2.13;91.13;101583.11;88789;1299;22590;-75
2022/10/12 04:32:32;;;;;;;32.90;20.00;;;;;;;2.13;91.38;101587.27;88696;1299;22045;-75
2022/10/12 04:34:38;;;;;;;29.50;18.80;;;;;;;2.14;91.50;101584.16;88037;1288;1002026;-76
2022/10/12 04:36:44;;;;;;;34.40;19.30;;;;;;;2.16;91.69;101584.88;88786;1297;22001;-76
2022/10/12 04:38:50;;;;;;;30.50;19.30;;;;;;;2.18;91.54;101587.50;88789;1294;22015;-76
2022/10/12 04:40:56;;;;;;;34.80;19.10;;;;;;;2.18;91.65;101590.43;88520;1297;22088;-76
2022/10/12 04:43:02;;;;;;;31.30;19.30;;;;;;;2.18;91.69;101589.21;88778;1297;22031;-76
2022/10/12 04:45:09;;;;;;;34.90;19.00;;;;;;;2.18;91.47;101593.00;88702;1294;22065;-76
2022/10/12 04:47:15;;;;;;;35.40;20.10;;;;;;;2.17;91.60;101593.34;88703;1299;22107;-76
2022/10/12 04:49:23;;;;;;;30.10;18.00;;;;;;;2.17;91.47;101599.00;88542;1305;22090;-75
2022/10/12 04:51:28;;;;;;;28.50;17.60;;;;;;;2.16;91.56;101601.77;88536;1306;22088;-76
2022/10/12 04:53:34;;;;;;;41.20;19.80;;;;;;;2.16;91.48;101600.71;88775;1297;22032;-76
2022/10/12 04:55:40;;;;;;;31.00;18.80;;;;;;;2.15;91.53;101597.26;88777;1287;22022;-76
2022/10/12 04:57:49;;;;;;;34.30;19.30;;;;;;;2.13;91.34;101602.73;88778;1299;22074;-76
2022/10/12 05:00:00;;;;;;;32.80;18.70;;;;;;;2.12;91.40;101602.72;88768;1287;22045;-76
2022/10/12 05:02:06;;;;;;;31.50;18.70;;;;;;;2.10;91.45;101604.23;88534;1305;22107;-76
2022/10/12 05:04:16;;;;;;;32.00;18.20;;;;;;;2.09;91.33;101605.07;88551;1298;22094;-77
2022/10/12 05:06:26;;;;;;;28.50;17.60;;;;;;;2.07;91.31;101610.55;88634;1298;22078;-77
2022/10/12 05:08:32;;;;;;;31.50;18.10;;;;;;;2.06;91.52;101611.05;88537;1306;22057;-76
2022/10/12 05:10:37;;;;;;;29.30;17.20;;;;;;;2.05;91.46;101612.59;88556;1298;22039;-77
2022/10/12 05:12:43;;;;;;;31.20;19.40;;;;;;;2.05;91.43;101611.20;88293;1305;348365;-77
2022/10/12 05:14:51;;;;;;;31.30;18.80;;;;;;;2.04;91.40;101610.67;88540;1298;22665;-75
2022/10/12 05:16:57;;;;;;;32.50;20.00;;;;;;;2.05;91.49;101614.83;88782;1287;22049;-75
2022/10/12 05:19:02;;;;;;;35.20;19.50;;;;;;;2.06;91.65;101615.02;88528;1305;22040;-75
2022/10/12 05:21:08;;;;;;;36.70;18.90;;;;;;;2.09;91.59;101618.85;88520;1305;22791;-75
2022/10/12 05:23:14;;;;;;;34.30;18.50;;;;;;;2.12;91.72;101618.71;88537;1298;22063;-73
2022/10/12 05:25:22;;;;;;;32.50;19.30;;;;;;;2.13;91.55;101620.30;88520;1306;22157;-75
2022/10/12 05:27:28;;;;;;;30.20;19.50;;;;;;;2.17;91.80;101626.22;88767;1292;22023;-75
2022/10/12 05:29:33;;;;;;;33.30;20.20;;;;;;;2.21;92.01;101629.73;88753;1297;22300;-75
2022/10/12 05:31:39;;;;;;;31.60;19.40;;;;;;;2.25;92.02;101634.08;88751;1297;22012;-76
2022/10/12 05:33:44;;;;;;;29.10;19.70;;;;;;;2.30;92.32;101632.79;88775;1287;22118;-74
2022/10/12 05:35:50;;;;;;;34.60;19.50;;;;;;;2.36;92.40;101634.61;88513;1305;22080;-75
2022/10/12 05:37:56;;;;;;;32.60;20.20;;;;;;;2.43;92.61;101634.89;87819;1299;1002257;-74
2022/10/12 05:40:01;;;;;;;37.50;19.90;;;;;;;2.49;92.75;101632.24;88784;1288;22080;-75
2022/10/12 05:42:07;;;;;;;29.90;18.50;;;;;;;2.58;92.77;101631.85;88551;1298;22064;-75
2022/10/12 05:44:12;;;;;;;30.40;19.60;;;;;;;2.69;92.88;101631.48;88798;1288;22044;-75
2022/10/12 05:46:18;;;;;;;38.90;22.40;;;;;;;2.78;93.08;101632.99;88771;1294;22211;-75
2022/10/12 05:48:24;;;;;;;36.40;22.20;;;;;;;2.87;93.20;101634.68;88564;1299;22150;-76
2022/10/12 05:50:29;;;;;;;35.10;20.20;;;;;;;2.96;93.39;101636.53;88544;1306;22095;-74
2022/10/12 05:52:35;;;;;;;36.90;22.80;;;;;;;3.04;93.50;101634.74;88545;1305;22142;-72
2022/10/12 05:54:41;;;;;;;38.00;23.40;;;;;;;3.13;93.74;101636.40;88775;1297;22074;-75
2022/10/12 05:56:46;;;;;;;37.00;22.30;;;;;;;3.22;93.89;101637.55;88546;1306;22066;-75
2022/10/12 05:58:52;;;;;;;37.00;22.20;;;;;;;3.31;94.00;101637.48;88546;1285;22049;-75
2022/10/12 06:01:04;;;;;;;37.00;21.80;;;;;;;3.41;93.75;101634.32;88528;1298;22056;-76
2022/10/12 06:03:17;;;;;;;40.60;23.20;;;;;;;3.60;93.95;101639.20;88644;1287;22154;-75
2022/10/12 06:05:23;;;;;;;38.90;22.10;;;;;;;3.96;94.41;101634.39;88742;1288;22718;-76
2022/10/12 06:07:29;;;;;;;44.10;22.30;;;;;;;4.12;94.58;101636.95;88753;1287;22100;-76
2022/10/12 06:09:37;;;;;;;35.70;23.10;;;;;;;4.22;94.62;101637.54;88772;1286;22028;-76
2022/10/12 06:11:43;;;;;;;36.20;20.60;;;;;;;4.30;94.35;101642.11;88609;1285;22681;-76
2022/10/12 06:13:49;;;;;;;35.60;22.30;;;;;;;4.35;94.07;101635.94;88619;1299;22656;-76
2022/10/12 06:15:54;;;;;;;35.90;21.50;;;;;;;4.42;94.16;101639.27;88627;1299;22060;-76
2022/10/12 06:18:00;;;;;;;39.10;23.00;;;;;;;4.49;94.15;101639.84;88622;1287;22592;-76
2022/10/12 06:20:08;;;;;;;39.40;22.70;;;;;;;4.57;94.16;101639.02;88543;1298;22594;-75
2022/10/12 06:22:14;;;;;;;39.00;22.20;;;;;;;4.64;94.12;101642.54;88785;1291;22008;-75
2022/10/12 06:24:20;;;;;;;38.70;22.90;;;;;;;4.72;94.23;101642.76;88802;1287;22068;-76
2022/10/12 06:26:25;;;;;;;36.90;21.40;;;;;;;4.79;94.02;101640.91;88783;1297;22021;-76
2022/10/12 06:28:31;;;;;;;36.50;20.40;;;;;;;4.86;94.14;101639.05;88569;1297;22050;-76
2022/10/12 06:30:37;;;;;;;36.40;21.50;;;;;;;4.94;93.89;101643.06;88543;1306;22143;-76
2022/10/12 06:32:42;;;;;;;40.60;21.20;;;;;;;5.01;93.87;101643.27;88571;1298;22617;-74
2022/10/12 06:34:48;;;;;;;38.80;20.70;;;;;;;5.09;93.81;101644.52;88799;1297;22040;-76
2022/10/12 06:36:54;;;;;;;37.10;19.90;;;;;;;5.18;93.65;101643.01;88555;1298;22066;-76
2022/10/12 06:38:59;;;;;;;43.60;21.10;;;;;;;5.26;93.75;101645.98;88788;1297;22064;-76
2022/10/12 06:41:05;;;;;;;30.80;19.10;;;;;;;5.34;93.77;101645.85;88538;1305;22103;-76
2022/10/12 06:43:11;;;;;;;32.90;19.40;;;;;;;5.43;93.77;101647.61;88798;1297;22115;-76
2022/10/12 06:45:17;;;;;;;35.80;19.30;;;;;;;5.53;93.56;101649.90;88773;1297;22753;-76
2022/10/12 06:47:22;;;;;;;33.30;18.20;;;;;;;5.63;93.50;101650.63;88633;1299;22094;-77
2022/10/12 06:49:31;;;;;;;30.10;18.30;;;;;;;5.73;93.46;101651.85;88438;1301;22090;-77
2022/10/12 06:51:37;;;;;;;37.80;19.30;;;;;;;5.83;93.33;101647.73;88525;1305;22121;-77
2022/10/12 06:53:43;;;;;;;37.70;20.50;;;;;;;5.92;93.37;101650.89;88764;1298;22741;-76
2022/10/12 06:55:48;;;;;;;35.20;20.10;;;;;;;6.02;93.53;101650.73;88510;1305;22065;-76
2022/10/12 06:57:55;;;;;;;33.00;18.20;;;;;;;6.11;93.38;101650.41;88534;1298;22108;-76
2022/10/12 07:00:00;;;;;;;32.80;19.40;;;;;;;6.20;93.25;101654.04;88528;1298;22789;-76
2022/10/12 07:02:07;;;;;;;31.40;18.30;;;;;;;6.28;93.20;101654.04;88516;1305;22071;-76
2022/10/12 07:04:13;;;;;;;31.10;19.10;;;;;;;6.37;93.06;101657.34;88786;1297;22085;-75
2022/10/12 07:06:19;;;;;;;31.20;18.50;;;;;;;6.48;93.38;101654.55;88535;1305;22110;-75
2022/10/12 07:08:24;;;;;;;38.00;19.20;;;;;;;6.61;93.32;101652.46;88782;1297;22691;-75
2022/10/12 07:10:30;;;;;;;37.40;17.30;;;;;;;6.72;93.46;101654.88;88544;1298;22624;-76
2022/10/12 07:12:36;;;;;;;30.10;17.00;;;;;;;6.81;93.02;101655.04;88810;1287;22042;-76
2022/10/12 07:14:42;;;;;;;36.70;18.00;;;;;;;6.89;92.56;101658.48;88570;1306;22070;-76
2022/10/12 07:16:48;;;;;;;39.30;18.10;;;;;;;7.02;92.75;101655.17;88563;1298;22113;-76
2022/10/12 07:18:54;;;;;;;30.20;16.40;;;;;;;7.19;92.32;101657.19;88543;1306;22508;-76
2022/10/12 07:21:01;;;;;;;31.90;16.80;;;;;;;7.37;92.40;101655.39;88767;1286;22038;-76
2022/10/12 07:23:07;;;;;;;32.90;18.70;;;;;;;7.55;92.27;101654.08;88767;1293;22066;-76
2022/10/12 07:25:12;;;;;;;34.20;17.00;;;;;;;7.81;92.42;101652.03;88764;1297;22603;-76
2022/10/12 07:27:18;;;;;;;29.90;16.80;;;;;;;8.23;93.81;101651.23;88527;1282;22057;-76
2022/10/12 07:29:24;;;;;;;29.80;17.90;;;;;;;8.69;96.26;101645.46;88773;1299;22588;-76
2022/10/12 07:45:58;;;;;;;28.20;13.00;;;;;;;14.74;82.36;101633.89;84568;1334;558786;-76
2022/10/12 07:48:07;;;;;;;20.40;12.80;;;;;;;16.30;73.20;101635.52;86580;1315;25262;-75
2022/10/12 07:50:16;;;;;;;21.00;12.50;;;;;;;16.87;70.73;101632.56;86398;1309;414436;-75
2022/10/12 07:52:26;;;;;;;21.00;12.80;;;;;;;17.33;67.29;101638.45;86774;1312;22468;-74
2022/10/12 07:54:35;;;;;;;20.90;13.10;;;;;;;17.76;66.02;101633.97;86766;1312;24287;-76
2022/10/12 07:56:45;;;;;;;23.10;12.80;;;;;;;18.24;63.74;101633.39;86745;1304;22540;-78
2022/10/12 07:58:55;;;;;;;20.30;11.30;;;;;;;18.67;61.27;101639.52;86748;1312;22479;-76
2022/10/12 08:01:09;;;;;;;21.50;11.90;;;;;;;19.17;59.41;101631.45;86789;1311;22789;-74
2022/10/12 08:03:18;;;;;;;17.40;11.80;;;;;;;19.54;58.19;101635.22;86764;1293;22473;-77
2022/10/12 08:05:27;;;;;;;19.80;11.80;;;;;;;19.77;55.77;101636.28;86687;1313;22504;-77
2022/10/12 08:07:35;;;;;;;17.30;11.20;;;;;;;20.00;55.45;101633.01;86771;1311;22478;-74
2022/10/12 08:09:45;;;;;;;15.70;10.90;;;;;;;20.16;53.72;101630.34;86934;1300;22509;-77
2022/10/12 08:11:52;;;;;;;;;;;;;;;20.07;53.65;101631.54;86948;1299;22486;-78
2022/10/12 08:14:01;;;;;;;17.20;10.50;;;;;;;19.74;53.29;101629.69;86926;1303;22544;-76
2022/10/12 08:20:19;;;;;;;18.60;9.50;;;;;;;18.55;53.85;101634.67;87195;1279;22455;-76
2022/10/12 08:22:28;;;;;;;13.70;8.80;;;;;;;18.13;54.57;101636.60;87179;1288;25907;-77
2022/10/12 08:24:38;;;;;;;19.60;10.10;;;;;;;17.74;55.04;101630.55;87199;1300;25987;-76
2022/10/12 08:26:47;;;;;;;19.30;10.20;;;;;;;17.36;54.81;101634.08;87195;1280;22479;-75
2022/10/12 08:28:55;;;;;;;19.10;10.60;;;;;;;17.00;55.57;101629.55;87173;1307;25498;-80
2022/10/12 08:31:07;;;;;;;18.80;10.60;;;;;;;16.72;56.05;101630.23;87181;1307;25419;-76
2022/10/12 08:33:16;;;;;;;19.60;9.90;;;;;;;16.51;57.06;101628.12;87064;1303;25516;-75
2022/10/12 08:35:25;;;;;;;16.10;9.50;;;;;;;16.33;57.27;101629.22;87211;1307;22571;-76
2022/10/12 08:37:34;;;;;;;16.60;9.30;;;;;;;16.16;57.17;101627.14;87207;1288;22588;-79
2022/10/12 08:39:45;;;;;;;13.80;7.80;;;;;;;16.06;56.93;101628.92;87104;1307;24334;-74
2022/10/12 08:42:05;;;;;;;13.90;7.70;;;;;;;15.93;57.43;101629.46;87186;1295;22473;-76
2022/10/12 08:44:38;;;;;;;13.70;7.70;;;;;;;15.87;57.93;101624.45;87206;1303;22471;-77
2022/10/12 08:46:47;;;;;;;13.90;7.40;;;;;;;15.79;57.72;101629.87;87205;1304;23879;-75
2022/10/12 08:49:00;;;;;;;16.50;7.60;;;;;;;15.78;58.05;101631.67;87228;1304;24883;-77
2022/10/12 08:51:13;;;;;;;12.70;7.40;;;;;;;15.78;58.38;101629.38;87231;1304;22468;-76
2022/10/12 08:53:26;;;;;;;11.90;7.40;;;;;;;15.73;58.21;101630.95;87254;1304;22473;-74
2022/10/12 08:59:57;;;;;;;12.20;7.70;;;;;;;15.72;59.73;101636.46;87379;1274;25978;-88
2022/10/12 09:02:17;;;;;;;15.00;7.30;;;;;;;15.91;59.84;101639.91;87174;1306;22562;-76
2022/10/12 09:04:41;;;;;;;13.40;7.10;;;;;;;16.18;59.50;101634.45;87171;1306;23717;-76
2022/10/12 09:06:58;;;;;;;9.90;5.50;;;;;;;16.62;59.18;101634.02;87148;1295;22571;-76
2022/10/12 09:09:20;;;;;;;12.50;5.70;;;;;;;17.18;58.14;101628.02;87147;1287;22500;-74
2022/10/12 09:11:52;;;;;;;11.50;5.20;;;;;;;17.88;57.89;101625.95;87157;1306;22527;-76
2022/10/12 09:14:32;;;;;;;11.90;4.90;;;;;;;18.67;56.13;101620.25;87177;1306;22440;-76
2022/10/12 09:16:41;;;;;;;;;;;;;;;19.49;54.57;101617.13;86889;1287;22458;-75
2022/10/12 09:18:52;;;;;;;8.80;5.60;;;;;;;20.01;52.79;101616.31;86871;1285;22483;-76
2022/10/12 09:25:24;;;;;;;9.20;4.80;;;;;;;21.55;48.80;101612.32;87099;1269;24501;-76
2022/10/12 09:27:35;;;;;;;10.80;5.20;;;;;;;21.96;46.83;101612.62;86872;1284;22479;-76
2022/10/12 09:29:44;;;;;;;11.90;4.60;;;;;;;22.25;46.26;101611.59;86892;1302;22495;-76
2022/10/12 09:32:09;;;;;;;8.40;5.10;;;;;;;22.64;45.81;101610.38;86875;1281;22480;-76
2022/10/12 09:34:25;;;;;;;12.90;5.30;;;;;;;22.96;43.64;101605.15;87052;1290;22473;-76
2022/10/12 09:41:03;;;;;;;14.10;5.80;;;;;;;23.46;41.91;101602.11;87172;1277;23617;-77
2022/10/12 09:43:12;;;;;;;10.10;4.60;;;;;;;23.67;41.97;101599.67;87086;1287;22489;-76
2022/10/12 09:45:23;;;;;;;7.90;4.10;;;;;;;23.82;41.21;101606.38;87287;1277;22502;-76
2022/10/12 09:51:47;;;;;;;6.00;3.80;;;;;;;23.30;41.02;101603.73;87213;1285;25147;-74
2022/10/12 09:53:57;;;;;;;5.90;3.50;;;;;;;22.96;41.04;101606.04;86957;1309;22521;-77
2022/10/12 09:56:09;;;;;;;11.10;3.50;;;;;;;22.47;40.59;101607.29;87220;1280;24272;-76
2022/10/12 09:58:21;;;;;;;6.50;3.20;;;;;;;21.91;41.32;101608.31;87043;1284;24258;-76
2022/10/12 10:00:32;;;;;;;9.80;4.20;;;;;;;21.43;41.87;101608.44;87058;1301;22550;-75
2022/10/12 10:02:50;;;;;;;10.90;4.70;;;;;;;20.92;42.05;101606.67;87079;1307;22489;-75
2022/10/12 10:05:00;;;;;;;8.70;3.80;;;;;;;20.42;43.02;101610.20;87084;1307;24034;-77
2022/10/12 10:10:53;;;;;;;14.50;4.30;;;;;;;19.23;44.55;101613.02;87183;1273;22493;-74
2022/10/12 10:13:04;;;;;;;10.00;4.20;;;;;;;18.95;45.19;101612.41;87011;1281;25277;-75
2022/10/12 10:15:23;;;;;;;8.80;2.80;;;;;;;18.66;45.06;101615.69;86975;1295;22479;-77
2022/10/12 10:17:33;;;;;;;8.80;4.20;;;;;;;18.39;46.17;101616.55;87000;1306;22719;-74
2022/10/12 10:19:42;;;;;;;8.80;4.80;;;;;;;18.21;46.41;101617.84;86903;1287;22486;-76
2022/10/12 10:21:51;;;;;;;6.90;4.30;;;;;;;17.97;46.16;101615.28;87009;1301;22458;-77
2022/10/12 10:24:01;;;;;;;9.40;3.40;;;;;;;17.72;46.75;101611.39;87017;1308;22535;-76
2022/10/12 10:26:09;;;;;;;;;;;;;;;17.57;47.30;101612.08;86932;1303;22445;-75
2022/10/12 10:28:30;;;;;;;7.40;3.30;;;;;;;17.39;47.67;101610.27;86907;1306;22539;-76